Time;durP1;ratioP1;P1;durP2;ratioP2;P2;SDS_P1;SDS_P2;PMS_P1;PMS_P2;Temp;Humidity;BMP_temperature;BMP_pressure;BME280_temperature;BME280_humidity;BME280_pressure;Samples;Min_cycle;Max_cycle;Signal;HPM_P1;HPM_P2
2021/12/26 00:01:35;;;;;;;12.25;2.80;;;;;;;5.29;63.76;100374.84;5091460;28;20503;-89
2021/12/26 00:04:04;;;;;;;11.38;2.80;;;;;;;5.24;63.88;100397.44;5090738;28;20094;-87
2021/12/26 00:06:30;;;;;;;14.27;2.55;;;;;;;5.24;63.74;100387.06;5091179;28;20063;-88
2021/12/26 00:08:59;;;;;;;8.40;2.42;;;;;;;5.26;64.85;100373.19;5090184;28;20139;-86
2021/12/26 00:11:26;;;;;;;16.17;3.60;;;;;;;5.28;64.33;100386.13;5074504;28;20760;-87
2021/12/26 00:13:55;;;;;;;14.25;2.33;;;;;;;5.30;63.22;100360.97;5074360;28;20379;-87
2021/12/26 00:16:23;;;;;;;15.95;4.18;;;;;;;5.21;63.90;100366.38;5090836;28;20109;-87
2021/12/26 00:18:51;;;;;;;11.38;2.65;;;;;;;5.70;63.28;100389.50;5072421;28;20044;-88
2021/12/26 00:21:20;;;;;;;14.48;3.78;;;;;;;5.42;61.36;100362.44;5078726;28;20052;-88
2021/12/26 00:23:48;;;;;;;11.65;2.15;;;;;;;5.53;62.87;100368.25;5079718;28;20052;-88
2021/12/26 00:26:15;;;;;;;15.98;2.45;;;;;;;5.41;65.18;100363.34;5077759;28;20048;-87
2021/12/26 00:28:42;;;;;;;14.50;3.45;;;;;;;5.50;66.19;100365.72;5102970;28;20052;-88
2021/12/26 00:31:09;;;;;;;14.88;2.53;;;;;;;5.65;66.42;100380.97;5088138;28;20048;-88
2021/12/26 00:33:37;;;;;;;8.90;2.00;;;;;;;5.17;67.31;100308.50;5095035;28;20055;-88
2021/12/26 00:36:04;;;;;;;12.90;2.67;;;;;;;5.14;67.28;100326.72;5095209;28;20485;-88
2021/12/26 00:38:32;;;;;;;10.10;2.13;;;;;;;5.48;64.91;100357.97;5095389;28;20135;-87
2021/12/26 00:41:00;;;;;;;11.77;2.55;;;;;;;5.14;63.46;100322.38;5095490;28;20063;-88
2021/12/26 00:43:27;;;;;;;11.52;2.17;;;;;;;5.25;63.80;100362.81;5077988;28;20738;-87
2021/12/26 00:45:55;;;;;;;9.55;1.92;;;;;;;5.51;63.94;100370.03;5094407;28;20051;-89
2021/12/26 00:48:22;;;;;;;13.90;2.97;;;;;;;5.43;67.05;100380.56;5093443;28;20044;-88
2021/12/26 00:50:49;;;;;;;24.55;5.03;;;;;;;5.36;69.30;100355.63;5107092;28;20741;-87
2021/12/26 00:53:16;;;;;;;17.35;2.65;;;;;;;5.63;68.43;100369.75;5074345;28;20049;-87
2021/12/26 00:55:43;;;;;;;13.70;2.78;;;;;;;5.35;66.71;100373.84;5074811;28;20055;-88
2021/12/26 00:58:09;;;;;;;13.55;2.42;;;;;;;5.25;66.32;100360.22;5081639;28;20040;-87
2021/12/26 01:00:42;;;;;;;15.10;2.17;;;;;;;5.60;64.63;100367.22;5094163;28;20047;-88
2021/12/26 01:03:11;;;;;;;13.07;2.28;;;;;;;5.60;64.77;100369.81;5095303;28;20511;-87
2021/12/26 01:05:41;;;;;;;10.27;2.30;;;;;;;5.46;65.96;100369.28;5094114;28;20704;-88
2021/12/26 01:08:13;;;;;;;13.60;2.45;;;;;;;5.44;65.22;100355.50;5093068;28;20040;-87
2021/12/26 01:10:45;;;;;;;11.68;2.95;;;;;;;5.65;65.34;100351.56;5076779;28;20052;-88
2021/12/26 01:13:38;;;;;;;11.18;2.00;;;;;;;5.49;67.39;100325.94;5077079;28;20141;-86
2021/12/26 01:16:06;;;;;;;11.80;2.03;;;;;;;5.31;64.01;100339.31;5094508;28;20040;-87
2021/12/26 01:18:36;;;;;;;14.82;2.60;;;;;;;5.13;63.91;100318.09;5093042;28;20052;-86
2021/12/26 01:21:25;;;;;;;15.23;3.15;;;;;;;5.26;65.82;100346.38;5084728;28;20055;-87
2021/12/26 01:23:56;;;;;;;14.50;2.42;;;;;;;5.32;66.95;100351.41;5074795;28;20054;-87
2021/12/26 01:26:24;;;;;;;12.88;2.17;;;;;;;5.28;66.86;100340.25;5074817;28;20496;-87
2021/12/26 01:28:52;;;;;;;12.65;2.28;;;;;;;5.56;66.98;100331.84;5070143;28;20056;-87
2021/12/26 01:31:20;;;;;;;19.25;2.88;;;;;;;5.46;67.62;100327.75;5094145;28;20047;-87
2021/12/26 01:33:50;;;;;;;17.05;2.42;;;;;;;5.42;66.76;100345.13;5093103;28;20048;-87
2021/12/26 01:36:17;;;;;;;13.55;2.28;;;;;;;5.65;66.70;100322.97;5076454;28;20059;-86
2021/12/26 01:38:44;;;;;;;10.48;2.15;;;;;;;5.79;67.10;100340.81;5075949;28;20058;-87
2021/12/26 01:41:11;;;;;;;19.77;3.63;;;;;;;5.54;68.91;100335.34;5076320;28;20059;-87
2021/12/26 01:43:41;;;;;;;11.00;2.80;;;;;;;5.42;70.58;100329.56;5076197;28;20074;-87
2021/12/26 01:46:08;;;;;;;14.70;2.65;;;;;;;5.55;69.96;100329.28;5090292;28;20048;-86
2021/12/26 01:48:35;;;;;;;12.95;2.33;;;;;;;5.67;68.04;100336.78;5075567;28;20052;-87
2021/12/26 01:51:02;;;;;;;17.30;3.38;;;;;;;5.79;68.10;100331.28;5104331;28;20060;-87
2021/12/26 01:53:39;;;;;;;16.50;2.47;;;;;;;5.83;67.03;100332.06;5078399;28;20040;-87
2021/12/26 01:56:11;;;;;;;10.10;2.20;;;;;;;5.65;63.09;100333.38;5113278;28;20142;-86
2021/12/26 01:58:39;;;;;;;9.13;2.30;;;;;;;5.83;61.92;100314.72;5099750;28;20496;-87
2021/12/26 02:01:16;;;;;;;10.25;1.90;;;;;;;6.13;61.55;100338.28;5076204;28;20047;-87
2021/12/26 02:03:43;;;;;;;9.70;2.13;;;;;;;5.77;64.92;100335.69;5080711;28;20056;-87
2021/12/26 02:06:11;;;;;;;20.00;3.28;;;;;;;5.63;67.04;100329.94;5092888;28;20048;-87
2021/12/26 02:08:37;;;;;;;15.25;2.85;;;;;;;5.77;65.96;100327.00;5099223;28;20166;-87
2021/12/26 02:11:05;;;;;;;12.88;2.78;;;;;;;5.69;67.31;100315.06;5092279;28;20477;-87
2021/12/26 02:13:37;;;;;;;12.25;1.92;;;;;;;5.64;67.21;100335.09;5092492;28;20052;-87
2021/12/26 02:16:05;;;;;;;14.88;3.25;;;;;;;5.41;68.30;100308.81;5092137;28;20043;-87
2021/12/26 02:18:32;;;;;;;10.98;2.72;;;;;;;5.54;67.78;100291.19;5091860;28;20061;-87
2021/12/26 02:28:42;;;;;;;20.00;3.05;;;;;;;5.68;71.05;100328.06;5092964;28;20059;-87
2021/12/26 02:31:10;;;;;;;12.38;2.35;;;;;;;5.69;71.20;100324.59;5093785;28;20070;-87
2021/12/26 02:33:40;;;;;;;15.93;3.53;;;;;;;5.45;71.55;100319.09;5093497;28;20055;-87
2021/12/26 02:36:08;;;;;;;16.92;2.58;;;;;;;5.56;72.30;100313.66;5093135;28;20044;-87
2021/12/26 02:38:36;;;;;;;12.55;2.50;;;;;;;5.61;70.21;100309.22;5074264;28;20055;-87
2021/12/26 02:41:04;;;;;;;14.68;3.13;;;;;;;5.73;69.22;100305.44;5075641;28;20489;-87
2021/12/26 02:43:32;;;;;;;13.90;2.90;;;;;;;5.67;70.32;100306.44;5074586;28;20055;-87
2021/12/26 02:46:05;;;;;;;15.57;3.17;;;;;;;5.67;71.99;100318.59;5091597;28;20059;-87
2021/12/26 02:48:37;;;;;;;10.98;2.30;;;;;;;5.69;75.33;100281.28;5091274;28;20044;-87
2021/12/26 02:51:05;;;;;;;16.80;3.08;;;;;;;5.68;73.57;100291.72;5092258;28;20074;-87
2021/12/26 02:53:33;;;;;;;10.90;2.08;;;;;;;5.54;73.41;100273.03;5073650;28;20134;-87
2021/12/26 02:56:01;;;;;;;21.20;2.70;;;;;;;5.37;73.10;100256.09;5075107;28;20408;-87
2021/12/26 02:58:29;;;;;;;16.10;2.70;;;;;;;5.87;72.33;100300.75;5073162;28;20054;-87
2021/12/26 03:00:57;;;;;;;12.20;2.45;;;;;;;5.61;68.33;100262.47;5091209;28;20048;-87
2021/12/26 03:03:24;;;;;;;12.10;2.78;;;;;;;5.40;66.51;100281.13;5091746;28;20508;-87
2021/12/26 03:06:03;;;;;;;12.25;2.53;;;;;;;5.87;65.75;100282.56;5092938;28;20063;-86
2021/12/26 03:08:30;;;;;;;15.27;3.10;;;;;;;5.47;66.73;100273.19;5073347;28;20126;-87
2021/12/26 03:10:59;;;;;;;16.45;2.78;;;;;;;5.82;67.05;100278.38;5091871;28;20508;-87
2021/12/26 03:13:28;;;;;;;14.05;2.58;;;;;;;5.65;67.62;100276.22;5091559;28;20054;-86
2021/12/26 03:15:55;;;;;;;9.95;2.03;;;;;;;5.77;66.06;100282.84;5091358;28;20048;-87
2021/12/26 03:18:22;;;;;;;11.70;2.45;;;;;;;5.86;65.45;100275.69;5090802;28;20048;-86
2021/12/26 03:20:50;;;;;;;15.68;2.65;;;;;;;5.69;67.93;100257.91;5093253;28;20405;-86
2021/12/26 03:23:21;;;;;;;18.77;2.67;;;;;;;5.83;70.04;100267.13;5090209;28;20131;-87
2021/12/26 03:25:48;;;;;;;10.35;2.30;;;;;;;5.55;73.05;100252.22;5092725;28;20044;-87
2021/12/26 03:28:17;;;;;;;17.42;3.40;;;;;;;5.86;72.25;100267.00;5073541;28;20043;-86
2021/12/26 03:30:44;;;;;;;11.30;2.22;;;;;;;5.56;72.31;100258.25;5091860;28;20052;-88
2021/12/26 03:33:13;;;;;;;15.32;2.40;;;;;;;5.49;71.17;100267.97;5054625;28;20045;-87
2021/12/26 03:35:40;;;;;;;15.10;3.10;;;;;;;5.63;69.20;100267.59;5072711;28;20049;-87
2021/12/26 03:38:09;;;;;;;11.40;2.20;;;;;;;5.91;68.51;100244.38;5101570;28;20044;-87
2021/12/26 03:40:36;;;;;;;16.77;2.40;;;;;;;5.94;69.10;100244.28;5090970;28;20087;-86
2021/12/26 03:43:04;;;;;;;12.38;2.90;;;;;;;5.65;71.65;100245.91;5090762;28;20051;-87
2021/12/26 03:45:40;;;;;;;22.83;4.10;;;;;;;5.60;73.00;100231.31;5090696;28;20474;-87
2021/12/26 03:48:07;;;;;;;12.18;3.30;;;;;;;5.59;73.66;100246.03;5090146;28;20511;-87
2021/12/26 03:50:39;;;;;;;15.50;2.65;;;;;;;5.83;73.90;100223.78;5090686;28;20860;-87
2021/12/26 03:53:06;;;;;;;15.63;3.40;;;;;;;5.72;74.76;100251.81;5070537;28;20056;-87
2021/12/26 03:55:32;;;;;;;12.63;3.00;;;;;;;5.64;69.57;100212.16;5054201;28;20053;-87
2021/12/26 03:57:59;;;;;;;13.52;2.90;;;;;;;5.80;67.67;100217.81;5078290;28;20500;-87
2021/12/26 04:00:27;;;;;;;18.23;2.70;;;;;;;5.68;67.59;100242.34;5074160;28;20052;-87
2021/12/26 04:02:55;;;;;;;12.27;2.70;;;;;;;5.55;68.89;100225.41;5092404;28;20538;-87
2021/12/26 04:05:23;;;;;;;14.63;2.53;;;;;;;5.73;70.18;100224.06;5090844;28;20044;-87
2021/12/26 04:07:50;;;;;;;9.43;2.80;;;;;;;5.73;71.81;100239.66;5073418;28;20470;-87
2021/12/26 04:10:18;;;;;;;14.52;2.80;;;;;;;5.91;73.67;100233.97;5093012;28;20058;-87
2021/12/26 04:12:48;;;;;;;12.85;3.10;;;;;;;5.84;71.11;100224.63;5104535;28;20626;-87
2021/12/26 04:15:19;;;;;;;20.75;3.10;;;;;;;5.60;70.79;100226.13;5107124;28;20048;-86
2021/12/26 04:17:48;;;;;;;10.95;2.58;;;;;;;5.94;69.74;100233.91;5072859;28;20040;-87
2021/12/26 04:20:15;;;;;;;14.65;2.95;;;;;;;5.51;69.84;100253.19;5089818;28;20048;-87
2021/12/26 04:22:42;;;;;;;13.40;2.55;;;;;;;5.46;70.57;100235.09;5110187;28;20396;-87
2021/12/26 04:25:10;;;;;;;13.82;2.10;;;;;;;5.85;71.64;100201.22;5111521;28;20048;-85
2021/12/26 04:27:36;;;;;;;15.32;3.53;;;;;;;5.86;74.53;100212.44;5089455;28;20048;-87
2021/12/26 04:30:07;;;;;;;10.00;2.45;;;;;;;5.71;74.97;100218.91;5090292;28;20673;-87
2021/12/26 04:32:34;;;;;;;15.07;3.08;;;;;;;5.83;73.79;100203.00;5090394;28;20048;-86
2021/12/26 04:35:01;;;;;;;16.70;2.70;;;;;;;5.37;73.28;100226.72;5104286;28;20473;-87
2021/12/26 04:37:28;;;;;;;11.10;2.67;;;;;;;5.59;71.90;100204.47;5089297;28;20486;-86
2021/12/26 04:39:54;;;;;;;13.00;3.22;;;;;;;5.87;71.86;100217.59;5089701;28;20048;-86
2021/12/26 04:42:22;;;;;;;17.55;3.28;;;;;;;5.79;71.38;100206.59;5090357;28;20551;-87
2021/12/26 04:44:51;;;;;;;16.33;2.95;;;;;;;5.96;71.62;100213.09;5072963;28;20058;-87
2021/12/26 04:47:18;;;;;;;12.85;2.53;;;;;;;5.66;73.13;100193.03;5072892;28;20451;-86
2021/12/26 04:49:45;;;;;;;11.60;2.72;;;;;;;5.89;71.85;100212.38;5072984;28;20056;-87
2021/12/26 04:52:12;;;;;;;11.10;2.60;;;;;;;5.72;74.05;100192.06;5089785;28;20048;-87
2021/12/26 04:54:38;;;;;;;11.38;3.08;;;;;;;5.88;70.60;100203.75;5090296;28;20059;-87
2021/12/26 04:57:05;;;;;;;11.63;2.47;;;;;;;5.96;70.58;100187.13;5090022;28;20055;-87
2021/12/26 04:59:32;;;;;;;9.35;2.78;;;;;;;5.95;70.96;100200.97;5072163;28;20044;-87
2021/12/26 05:01:59;;;;;;;14.45;2.67;;;;;;;5.94;72.48;100184.53;5090152;28;20083;-87
2021/12/26 05:04:26;;;;;;;19.55;3.90;;;;;;;5.96;73.93;100190.56;5090025;28;20082;-87
2021/12/26 05:06:53;;;;;;;17.58;4.45;;;;;;;5.73;74.32;100187.69;5091928;28;20067;-87
2021/12/26 05:09:20;;;;;;;14.35;3.58;;;;;;;5.70;76.54;100171.31;5092664;28;20048;-86
2021/12/26 05:11:46;;;;;;;10.88;2.50;;;;;;;5.92;74.63;100170.72;5094877;28;20052;-87
2021/12/26 05:14:13;;;;;;;12.48;2.83;;;;;;;5.85;72.21;100179.59;5092998;28;20063;-87
2021/12/26 05:16:41;;;;;;;15.80;2.33;;;;;;;5.92;70.41;100169.88;5093470;28;20044;-87
2021/12/26 05:19:07;;;;;;;13.88;2.83;;;;;;;5.86;73.33;100174.34;5092800;28;20082;-87
2021/12/26 05:21:34;;;;;;;26.35;3.00;;;;;;;5.86;75.90;100170.88;5095004;28;20489;-87
2021/12/26 05:24:01;;;;;;;18.08;3.63;;;;;;;5.71;71.70;100182.53;5094543;28;20044;-87
2021/12/26 05:26:28;;;;;;;13.05;2.50;;;;;;;5.88;70.90;100177.75;5093943;28;20581;-86
2021/12/26 05:28:55;;;;;;;18.38;5.38;;;;;;;5.57;71.25;100172.50;5092503;28;20474;-87
2021/12/26 05:31:21;;;;;;;21.45;2.78;;;;;;;5.69;73.58;100160.97;5093387;28;20044;-87
2021/12/26 05:33:48;;;;;;;20.65;4.88;;;;;;;5.75;76.18;100181.56;5093839;28;20059;-87
2021/12/26 05:36:15;;;;;;;10.77;2.78;;;;;;;6.02;73.81;100169.63;5094206;28;20055;-87
2021/12/26 05:38:43;;;;;;;15.63;2.50;;;;;;;6.12;73.90;100178.00;5093863;28;20793;-87
2021/12/26 05:41:10;;;;;;;15.20;2.63;;;;;;;5.93;74.98;100168.97;5076711;28;20512;-87
2021/12/26 05:43:36;;;;;;;21.40;3.47;;;;;;;5.81;74.95;100164.97;5092826;28;20048;-87
2021/12/26 05:46:03;;;;;;;15.25;2.60;;;;;;;5.99;74.23;100146.31;5093201;28;20056;-87
2021/12/26 05:48:30;;;;;;;18.77;3.85;;;;;;;5.75;72.16;100162.53;5075461;28;20048;-87
2021/12/26 05:50:57;;;;;;;18.70;3.10;;;;;;;5.93;71.28;100151.63;5092882;28;20052;-86
2021/12/26 05:53:23;;;;;;;14.35;3.03;;;;;;;6.17;71.09;100163.13;5075356;28;20056;-87
2021/12/26 05:55:51;;;;;;;12.50;2.30;;;;;;;5.49;72.50;100109.56;5075780;28;20138;-87
2021/12/26 05:58:17;;;;;;;31.63;3.70;;;;;;;5.50;71.59;100109.50;5091152;28;20044;-86
2021/12/26 06:00:44;;;;;;;19.38;4.30;;;;;;;5.58;69.03;100108.44;5092286;28;20044;-87
2021/12/26 06:03:11;;;;;;;12.38;2.55;;;;;;;5.93;69.53;100156.81;5093498;28;20473;-87
2021/12/26 06:05:38;;;;;;;13.85;2.60;;;;;;;5.97;71.19;100163.69;5072180;28;20052;-87
2021/12/26 06:08:04;;;;;;;16.48;3.22;;;;;;;6.03;72.98;100153.09;5075274;28;20044;-87
2021/12/26 06:10:31;;;;;;;14.02;2.72;;;;;;;5.85;77.25;100156.19;5093633;28;20043;-87
2021/12/26 06:12:58;;;;;;;13.43;3.97;;;;;;;5.71;80.66;100154.81;5067672;28;20044;-86
2021/12/26 06:15:25;;;;;;;17.85;2.47;;;;;;;5.54;75.99;100140.56;5102904;28;20054;-87
2021/12/26 06:17:52;;;;;;;16.40;3.10;;;;;;;5.63;74.17;100146.41;5065051;28;20051;-87
2021/12/26 06:20:18;;;;;;;15.77;3.35;;;;;;;5.61;75.01;100163.78;5064990;28;20052;-87
2021/12/26 06:22:46;;;;;;;13.38;2.67;;;;;;;5.86;76.12;100137.09;5108876;28;20055;-87
2021/12/26 06:25:14;;;;;;;13.23;3.42;;;;;;;5.80;80.03;100150.28;5072305;28;20048;-87
2021/12/26 06:27:41;;;;;;;16.67;2.58;;;;;;;5.56;79.13;100147.44;5067977;28;20055;-87
2021/12/26 06:30:09;;;;;;;19.08;4.63;;;;;;;5.77;78.29;100133.03;5074280;28;20054;-86
2021/12/26 06:32:40;;;;;;;16.50;2.50;;;;;;;5.77;77.95;100124.38;5093379;28;20083;-87
2021/12/26 06:35:09;;;;;;;14.20;2.70;;;;;;;5.51;78.72;100126.78;5106817;28;20107;-87
2021/12/26 06:37:37;;;;;;;20.75;3.15;;;;;;;5.60;79.41;100136.09;5077691;28;20047;-87
2021/12/26 06:40:06;;;;;;;19.15;3.38;;;;;;;5.66;77.48;100125.50;5070335;28;20101;-87
2021/12/26 06:42:37;;;;;;;18.42;3.20;;;;;;;5.68;76.33;100141.94;5090260;28;20054;-87
2021/12/26 06:45:05;;;;;;;11.38;2.47;;;;;;;5.88;76.50;100150.94;5066062;28;20083;-87
2021/12/26 06:47:33;;;;;;;16.30;2.72;;;;;;;5.62;77.11;100162.00;5084286;28;20447;-87
2021/12/26 06:50:01;;;;;;;16.17;3.00;;;;;;;5.94;76.21;100135.16;5078116;28;20051;-87
2021/12/26 06:52:27;;;;;;;15.20;3.22;;;;;;;6.09;76.94;100146.88;5066131;28;20409;-86
2021/12/26 06:54:54;;;;;;;15.50;2.70;;;;;;;6.05;79.06;100133.13;5069576;28;20058;-87
2021/12/26 06:57:21;;;;;;;14.27;2.72;;;;;;;5.96;77.62;100135.16;5073160;28;20067;-87
2021/12/26 06:59:48;;;;;;;14.32;2.40;;;;;;;5.77;77.63;100124.38;5066535;28;20049;-86
2021/12/26 07:02:15;;;;;;;13.35;3.08;;;;;;;5.84;75.52;100144.09;5068394;28;20045;-87
2021/12/26 07:04:42;;;;;;;14.98;2.70;;;;;;;5.76;76.06;100140.88;5067354;28;20126;-85
2021/12/26 07:07:09;;;;;;;13.77;2.33;;;;;;;5.56;78.16;100142.25;5086373;28;20767;-85
2021/12/26 07:09:36;;;;;;;15.20;3.47;;;;;;;5.58;76.80;100137.88;5086158;28;20060;-86
2021/12/26 07:12:03;;;;;;;12.48;2.63;;;;;;;5.85;75.70;100132.81;5062989;28;20735;-86
2021/12/26 07:14:30;;;;;;;10.95;2.08;;;;;;;5.66;72.97;100137.66;5085327;28;20043;-88
2021/12/26 07:16:57;;;;;;;16.65;2.63;;;;;;;6.01;73.20;100139.31;5085239;28;20040;-87
2021/12/26 07:19:24;;;;;;;16.40;2.58;;;;;;;5.72;75.02;100103.75;5072863;28;20083;-87
2021/12/26 07:21:51;;;;;;;15.18;2.75;;;;;;;5.71;76.02;100112.41;5104907;28;20102;-87
2021/12/26 07:24:18;;;;;;;15.07;3.42;;;;;;;5.45;75.82;100095.81;5100868;28;20056;-86
2021/12/26 07:26:45;;;;;;;14.05;3.35;;;;;;;5.97;76.65;100110.88;5073269;28;20409;-87
2021/12/26 07:29:11;;;;;;;11.45;2.85;;;;;;;5.87;76.51;100125.81;5083161;28;20048;-86
2021/12/26 07:31:38;;;;;;;14.98;3.08;;;;;;;5.68;76.27;100125.47;5071486;28;20056;-87
2021/12/26 07:34:05;;;;;;;19.58;2.80;;;;;;;5.94;73.97;100129.13;5099858;28;20052;-86
2021/12/26 07:36:32;;;;;;;21.48;3.58;;;;;;;5.78;75.75;100092.31;5061964;28;20056;-86
2021/12/26 07:38:59;;;;;;;17.30;3.00;;;;;;;5.73;78.87;100122.75;5082999;28;20052;-87
2021/12/26 07:41:26;;;;;;;11.65;3.20;;;;;;;5.98;78.36;100121.19;5082069;28;20787;-86
2021/12/26 07:43:53;;;;;;;15.00;2.47;;;;;;;5.90;82.02;100113.59;5084037;28;20062;-86
2021/12/26 07:46:19;;;;;;;14.48;2.85;;;;;;;5.94;82.07;100119.56;5080526;28;20047;-87
2021/12/26 07:48:46;;;;;;;15.77;3.25;;;;;;;5.99;80.57;100120.31;5071572;28;20109;-87
2021/12/26 07:51:13;;;;;;;11.63;2.83;;;;;;;5.80;81.17;100106.13;5098720;28;20059;-87
2021/12/26 07:53:40;;;;;;;12.98;2.72;;;;;;;5.85;77.09;100110.28;5076579;28;20407;-87
2021/12/26 07:56:07;;;;;;;14.13;3.08;;;;;;;5.70;76.59;100097.72;5083862;28;20044;-87
2021/12/26 07:58:34;;;;;;;18.17;3.42;;;;;;;5.67;78.57;100103.84;5064446;28;20079;-87
2021/12/26 08:01:07;;;;;;;14.05;2.50;;;;;;;6.03;80.91;100106.34;5069518;28;20044;-86
2021/12/26 08:03:36;;;;;;;17.15;2.92;;;;;;;6.07;80.86;100112.28;5061825;28;20105;-87
2021/12/26 08:06:03;;;;;;;17.42;3.20;;;;;;;5.83;81.52;100121.63;5078118;28;20478;-86
2021/12/26 08:08:30;;;;;;;21.08;3.40;;;;;;;6.04;79.64;100107.22;5070768;28;20067;-87
2021/12/26 08:10:57;;;;;;;13.07;2.83;;;;;;;5.99;78.63;100138.50;5072126;28;20056;-86
2021/12/26 08:13:24;;;;;;;17.27;3.40;;;;;;;5.90;78.17;100139.59;5072934;28;20562;-86
2021/12/26 08:15:50;;;;;;;12.88;2.60;;;;;;;5.83;76.72;100114.66;5073235;28;20054;-85
2021/12/26 08:18:18;;;;;;;13.95;3.42;;;;;;;5.97;75.09;100116.06;5073636;28;20393;-84
2021/12/26 08:20:45;;;;;;;19.55;2.83;;;;;;;5.78;77.50;100118.28;5091056;28;20062;-84
2021/12/26 08:23:11;;;;;;;10.23;2.92;;;;;;;5.55;80.66;100127.56;5068545;28;20068;-84
2021/12/26 08:25:38;;;;;;;13.25;3.05;;;;;;;5.88;81.17;100131.00;5094496;28;20047;-83
2021/12/26 08:28:05;;;;;;;16.77;2.80;;;;;;;5.99;83.04;100127.28;5090398;28;20043;-84
2021/12/26 08:30:34;;;;;;;20.40;3.45;;;;;;;5.98;83.10;100116.00;5090540;28;20087;-84
2021/12/26 08:33:05;;;;;;;29.13;3.63;;;;;;;5.96;82.67;100141.19;5071020;28;20207;-83
2021/12/26 08:35:34;;;;;;;16.20;3.75;;;;;;;6.25;80.11;100114.38;5088851;28;20412;-84
2021/12/26 08:38:02;;;;;;;17.83;2.97;;;;;;;6.03;78.11;100136.69;5097501;28;20044;-84
2021/12/26 08:40:29;;;;;;;14.80;2.88;;;;;;;6.19;78.45;100130.13;5074384;28;20054;-84
2021/12/26 08:42:56;;;;;;;19.70;3.28;;;;;;;6.18;77.56;100122.38;5112098;28;20473;-84
2021/12/26 08:45:25;;;;;;;20.60;5.50;;;;;;;5.85;78.12;100125.88;5066958;28;20044;-85
2021/12/26 08:47:55;;;;;;;18.63;4.85;;;;;;;6.06;78.16;100121.84;5076838;28;20044;-85
2021/12/26 08:50:25;;;;;;;17.38;3.05;;;;;;;6.25;79.30;100126.50;5077638;28;20400;-85
2021/12/26 08:52:52;;;;;;;16.50;2.88;;;;;;;5.88;79.00;100123.19;5076483;28;20044;-85
2021/12/26 08:55:21;;;;;;;16.67;2.63;;;;;;;5.96;76.79;100135.16;5074722;28;20055;-85
2021/12/26 08:57:48;;;;;;;16.92;3.33;;;;;;;5.87;75.61;100103.28;5075691;28;20036;-85
2021/12/26 09:00:16;;;;;;;15.88;3.25;;;;;;;5.88;77.94;100143.97;5074067;28;20044;-86
2021/12/26 09:02:44;;;;;;;14.07;3.10;;;;;;;6.04;77.96;100133.19;5068748;28;20052;-84
2021/12/26 09:05:12;;;;;;;19.20;3.97;;;;;;;5.94;74.01;100142.09;5075382;28;20047;-85
2021/12/26 09:07:39;;;;;;;16.48;3.15;;;;;;;5.90;77.48;100134.38;5109756;28;20048;-89
2021/12/26 09:10:08;;;;;;;17.63;4.13;;;;;;;6.08;79.34;100133.03;5090956;28;20070;-89
2021/12/26 09:12:35;;;;;;;12.88;2.67;;;;;;;6.14;80.41;100099.97;5094593;28;20101;-90
2021/12/26 09:15:03;;;;;;;15.07;4.32;;;;;;;6.06;76.37;100116.66;5093679;28;20050;-90
2021/12/26 09:17:32;;;;;;;13.75;2.83;;;;;;;6.10;74.39;100111.38;5091770;28;20051;-90
2021/12/26 09:19:59;;;;;;;10.15;2.63;;;;;;;6.07;74.63;100102.78;5075159;28;20048;-90
2021/12/26 09:22:26;;;;;;;14.45;2.90;;;;;;;6.01;74.78;100099.50;5072889;28;20062;-91
2021/12/26 09:24:53;;;;;;;18.63;3.53;;;;;;;6.10;74.57;100088.81;5074349;28;20114;-90
2021/12/26 09:27:20;;;;;;;19.58;3.30;;;;;;;5.96;75.62;100090.97;5089365;28;20040;-89
2021/12/26 09:29:47;;;;;;;20.50;3.80;;;;;;;5.86;75.13;100095.53;5092047;28;20079;-89
2021/12/26 09:32:14;;;;;;;14.93;2.90;;;;;;;6.31;74.05;100102.09;5094563;28;20054;-89
2021/12/26 09:34:41;;;;;;;16.83;3.00;;;;;;;6.08;74.66;100095.81;5080671;28;20047;-90
2021/12/26 09:37:10;;;;;;;22.17;3.35;;;;;;;6.23;74.82;100103.16;5093998;28;20044;-90
2021/12/26 09:39:38;;;;;;;19.40;2.95;;;;;;;6.03;75.05;100114.13;5089661;28;20056;-91
2021/12/26 09:42:05;;;;;;;13.38;2.53;;;;;;;6.27;72.92;100106.53;5064302;28;20049;-90
2021/12/26 09:44:32;;;;;;;17.77;2.78;;;;;;;6.25;73.43;100095.28;5090400;28;20060;-90
2021/12/26 09:46:59;;;;;;;12.43;2.88;;;;;;;6.31;70.56;100087.34;5114501;27;20050;-90
2021/12/26 09:49:26;;;;;;;18.45;3.50;;;;;;;6.10;71.17;100090.56;5086238;28;20063;-89
2021/12/26 09:51:52;;;;;;;24.67;2.90;;;;;;;6.20;71.00;100071.22;5082809;28;20469;-90
2021/12/26 09:54:20;;;;;;;10.38;2.90;;;;;;;5.99;72.92;100090.88;5066013;28;20048;-87
2021/12/26 09:56:46;;;;;;;15.52;2.78;;;;;;;6.17;72.29;100089.50;5075912;28;20054;-90
2021/12/26 09:59:17;;;;;;;11.82;2.50;;;;;;;6.39;69.80;100102.69;5077119;28;20044;-90
2021/12/26 10:01:51;;;;;;;17.60;2.85;;;;;;;6.19;73.17;100088.53;5076728;28;20112;-89
2021/12/26 10:04:39;;;;;;;23.70;4.13;;;;;;;6.15;77.75;100092.13;5079772;28;20056;-91
2021/12/26 10:07:15;;;;;;;17.92;3.42;;;;;;;6.15;78.00;100066.16;5077553;28;20401;-91
2021/12/26 10:09:44;;;;;;;15.90;2.95;;;;;;;5.97;79.18;100056.31;5088154;28;20053;-90
2021/12/26 10:12:14;;;;;;;16.85;2.78;;;;;;;6.35;80.33;100096.72;5076744;28;20060;-92
2021/12/26 10:14:48;;;;;;;17.33;4.07;;;;;;;5.94;81.36;100020.81;5076538;28;20071;-89
2021/12/26 10:17:23;;;;;;;21.58;4.85;;;;;;;6.19;82.33;100087.69;5092994;28;20050;-88
2021/12/26 10:19:52;;;;;;;19.02;3.25;;;;;;;6.05;78.13;100094.13;5072395;28;20105;-88
2021/12/26 10:22:26;;;;;;;15.77;2.75;;;;;;;6.04;74.60;100084.66;5072038;28;20048;-88
2021/12/26 10:24:55;;;;;;;12.95;3.13;;;;;;;6.03;78.12;100088.13;5075182;28;20087;-88
2021/12/26 10:27:31;;;;;;;19.10;4.45;;;;;;;6.23;78.04;100099.69;5071878;28;20047;-88
2021/12/26 10:30:01;;;;;;;13.73;3.28;;;;;;;6.21;77.50;100097.13;5091650;28;20044;-88
2021/12/26 10:32:33;;;;;;;15.70;3.85;;;;;;;6.22;79.37;100085.84;5074270;28;20044;-89
2021/12/26 10:35:16;;;;;;;17.20;3.15;;;;;;;6.06;79.12;100082.00;5066273;28;20052;-88
2021/12/26 10:37:49;;;;;;;15.82;3.30;;;;;;;6.08;76.59;100080.22;5103212;28;20051;-90
2021/12/26 10:40:22;;;;;;;24.70;3.90;;;;;;;6.32;75.62;100075.16;5073138;28;20048;-88
2021/12/26 10:43:00;;;;;;;16.48;2.85;;;;;;;6.36;77.75;100071.59;5069912;28;20050;-89
2021/12/26 10:45:33;;;;;;;13.73;3.17;;;;;;;6.35;79.27;100077.69;5097711;28;20094;-88
2021/12/26 10:48:04;;;;;;;13.27;3.38;;;;;;;6.27;79.15;100067.53;5072964;28;20393;-87
2021/12/26 10:50:36;;;;;;;18.73;3.33;;;;;;;6.04;75.77;100055.22;5091107;28;20050;-88
2021/12/26 10:53:07;;;;;;;15.02;3.25;;;;;;;6.35;74.72;100068.13;5074108;28;20044;-89
2021/12/26 10:55:40;;;;;;;13.00;2.92;;;;;;;5.84;76.79;100073.94;5090404;28;20058;-88
2021/12/26 10:58:13;;;;;;;14.50;3.85;;;;;;;6.02;77.75;100050.06;5089381;28;20040;-88
2021/12/26 11:00:44;;;;;;;15.65;3.33;;;;;;;6.54;76.82;100052.81;5072632;28;20052;-88
2021/12/26 11:03:20;;;;;;;23.63;3.75;;;;;;;6.49;80.91;100059.91;5073888;28;20079;-87
2021/12/26 11:05:47;;;;;;;18.80;3.63;;;;;;;6.48;78.38;100068.63;5074664;28;20127;-88
2021/12/26 11:08:17;;;;;;;15.50;3.25;;;;;;;6.28;76.07;100038.00;5089079;28;20046;-88
2021/12/26 11:10:50;;;;;;;23.38;3.38;;;;;;;6.31;76.10;100021.50;5070369;28;20050;-88
2021/12/26 11:13:29;;;;;;;22.35;3.88;;;;;;;6.40;79.38;100044.59;5092935;28;20075;-90
2021/12/26 11:16:05;;;;;;;15.50;4.03;;;;;;;6.76;80.09;100039.09;5070860;28;20051;-89
2021/12/26 11:18:33;;;;;;;20.30;8.63;;;;;;;6.44;86.03;100017.59;5072856;28;20046;-88
2021/12/26 11:21:03;;;;;;;321.02;146.00;;;;;;;6.25;85.21;100051.09;5091143;28;20048;-87
2021/12/26 11:23:34;;;;;;;86.15;35.35;;;;;;;6.61;82.01;100010.09;5062510;28;20044;-89
2021/12/26 11:26:04;;;;;;;212.50;108.10;;;;;;;6.68;83.44;100018.53;5060560;28;20159;-90
2021/12/26 11:28:36;;;;;;;22.15;6.50;;;;;;;6.43;88.44;100023.69;5081869;28;20050;-89
2021/12/26 11:31:11;;;;;;;34.05;13.63;;;;;;;6.50;86.84;100020.00;5074208;28;20126;-90
2021/12/26 11:33:39;;;;;;;20.05;6.20;;;;;;;6.47;84.94;100017.50;5068254;28;20405;-90
2021/12/26 11:36:12;;;;;;;28.27;10.18;;;;;;;6.54;83.31;100007.75;5058837;28;20057;-90
2021/12/26 11:38:40;;;;;;;13.23;3.33;;;;;;;6.46;86.53;100015.78;5063414;28;20471;-89